createdAt,value
2023-01-09T00:01:47.388Z,11.70
2023-01-09T00:20:29.494Z,9.20
2023-01-09T00:39:06.309Z,8.50
2023-01-09T00:57:44.543Z,9.50
2023-01-09T01:16:24.434Z,7.00
2023-01-09T01:35:04.049Z,8.20
2023-01-09T01:53:46.494Z,9.10
2023-01-09T02:12:23.846Z,5.60
2023-01-09T02:31:04.148Z,6.90
2023-01-09T02:49:43.423Z,7.10
2023-01-09T03:08:24.185Z,8.20
2023-01-09T03:27:02.211Z,8.30
2023-01-09T03:45:41.355Z,8.00
2023-01-09T04:04:20.273Z,6.40
2023-01-09T04:22:59.784Z,10.60
2023-01-09T04:41:39.298Z,7.50
2023-01-09T05:18:59.112Z,6.70
2023-01-09T05:37:41.865Z,11.10
2023-01-09T05:56:16.314Z,5.80
2023-01-09T06:14:56.240Z,10.50
2023-01-09T06:33:36.284Z,9.30
2023-01-09T06:52:15.446Z,12.50
2023-01-09T07:10:54.467Z,10.20
2023-01-09T07:29:33.898Z,11.80
2023-01-09T07:48:14.548Z,10.00
2023-01-09T08:06:55.335Z,12.50
2023-01-09T08:25:35.560Z,17.60
2023-01-09T08:44:17.089Z,11.50
2023-01-09T09:02:56.963Z,10.60
2023-01-09T09:21:37.452Z,11.50
2023-01-09T09:59:01.674Z,10.20
2023-01-09T10:17:41.615Z,7.70
2023-01-09T10:36:21.100Z,8.60
2023-01-09T10:55:02.526Z,8.50
2023-01-09T11:13:46.735Z,11.60
2023-01-09T11:32:21.584Z,11.90
2023-01-09T11:51:01.611Z,11.10
2023-01-09T12:09:42.560Z,13.70
2023-01-09T12:28:21.177Z,11.40
2023-01-09T12:47:03.020Z,14.40
2023-01-09T13:05:42.129Z,5.80
2023-01-09T13:24:22.351Z,1.10
2023-01-09T13:43:01.836Z,3.30
2023-01-09T14:20:20.312Z,0.40
2023-01-09T14:38:56.856Z,0.60
2023-01-09T15:34:49.397Z,2.30
2023-01-09T15:53:29.669Z,2.40
2023-01-09T16:12:13.202Z,1.70
2023-01-09T16:30:50.676Z,3.80
2023-01-09T16:49:30.327Z,11.60
2023-01-09T17:08:11.533Z,8.20
2023-01-09T17:26:49.410Z,6.60
2023-01-09T17:45:24.862Z,8.70
2023-01-09T18:04:04.696Z,8.30
2023-01-09T18:22:42.319Z,7.80
2023-01-09T18:41:20.144Z,5.30
2023-01-09T18:59:59.808Z,7.60
2023-01-09T19:18:39.697Z,9.20
2023-01-09T19:37:19.120Z,11.70
2023-01-09T19:56:05.673Z,9.80
2023-01-09T20:14:39.745Z,14.50
2023-01-09T20:33:19.777Z,11.90
2023-01-09T20:51:58.373Z,13.00
2023-01-09T21:10:38.636Z,13.10
2023-01-09T21:29:20.485Z,13.50
2023-01-09T21:47:57.840Z,12.50
2023-01-09T22:06:36.537Z,12.00
2023-01-09T23:02:35.793Z,10.10
2023-01-09T23:21:16.227Z,9.10
2023-01-09T23:39:56.971Z,8.30
2023-01-09T23:58:37.709Z,10.00
